Time;durP1;ratioP1;P1;durP2;ratioP2;P2;SDS_P1;SDS_P2;PMS_P1;PMS_P2;Temp;Humidity;BMP_temperature;BMP_pressure;BME280_temperature;BME280_humidity;BME280_pressure;Samples;Min_cycle;Max_cycle;Signal;HPM_P1;HPM_P2
2022/01/23 00:00:16;;;;;;;25.50;15.93;;;;;;;0.26;100.00;97764.69;5071045;28;20034;-79
2022/01/23 00:02:46;;;;;;;23.43;13.43;;;;;;;0.26;100.00;97759.50;5075252;28;20119;-78
2022/01/23 00:05:12;;;;;;;24.13;14.33;;;;;;;0.28;100.00;97758.56;5055167;28;20021;-78
2022/01/23 00:07:40;;;;;;;22.03;13.13;;;;;;;0.28;100.00;97762.88;5060487;28;20087;-77
2022/01/23 00:10:06;;;;;;;23.37;13.90;;;;;;;0.30;100.00;97767.06;5044256;28;20463;-78
2022/01/23 00:12:39;;;;;;;25.67;15.40;;;;;;;0.23;100.00;97760.44;5063883;28;20033;-78
2022/01/23 00:17:49;;;;;;;27.43;15.23;;;;;;;0.27;100.00;97761.19;5067606;28;20054;-78
2022/01/23 00:20:15;;;;;;;24.33;13.73;;;;;;;0.26;100.00;97759.50;5066779;28;20040;-78
2022/01/23 00:22:52;;;;;;;21.77;12.37;;;;;;;0.29;100.00;97746.44;5064483;28;20020;-80
2022/01/23 00:31:33;;;;;;;25.53;14.47;;;;;;;0.28;100.00;97744.78;5017583;28;20037;-79
2022/01/23 00:33:59;;;;;;;24.23;13.73;;;;;;;0.28;100.00;97749.94;5040483;28;20045;-79
2022/01/23 00:36:26;;;;;;;26.47;14.00;;;;;;;0.32;100.00;97759.28;5052047;28;20528;-77
2022/01/23 00:38:52;;;;;;;24.90;15.37;;;;;;;0.31;100.00;97748.09;5047875;28;20068;-80
2022/01/23 00:41:18;;;;;;;28.67;16.10;;;;;;;0.31;100.00;97744.66;5052459;28;20032;-79
2022/01/23 00:43:45;;;;;;;25.57;13.93;;;;;;;0.29;100.00;97752.47;5054985;28;20032;-80
2022/01/23 00:51:33;;;;;;;25.63;14.23;;;;;;;0.28;100.00;97744.78;5064901;28;20398;-79
2022/01/23 00:54:02;;;;;;;25.97;13.60;;;;;;;0.37;100.00;97746.97;5060629;28;20059;-78
2022/01/23 00:56:28;;;;;;;27.03;13.23;;;;;;;0.32;100.00;97743.75;5060032;28;20405;-80
2022/01/23 00:58:54;;;;;;;24.03;13.70;;;;;;;0.31;100.00;97744.66;5071517;28;20028;-79
2022/01/23 01:01:20;;;;;;;26.87;15.00;;;;;;;0.28;100.00;97744.78;5066159;28;20094;-80
2022/01/23 01:03:46;;;;;;;25.90;14.07;;;;;;;0.26;100.00;97737.06;5053890;28;20024;-79
2022/01/23 01:06:12;;;;;;;25.67;13.93;;;;;;;0.26;100.00;97736.22;5048755;28;20060;-79
2022/01/23 01:08:38;;;;;;;24.43;13.93;;;;;;;0.26;100.00;97738.81;5060996;28;20028;-78
2022/01/23 01:14:18;;;;;;;27.77;15.87;;;;;;;0.23;100.00;97725.09;5065166;28;20486;-79
2022/01/23 01:16:56;;;;;;;24.45;13.85;;;;;;;0.23;100.00;97730.28;5065101;28;20040;-79
2022/01/23 01:30:33;;;;;;;25.53;14.77;;;;;;;0.24;100.00;97744.06;5081357;28;20028;-80
2022/01/23 01:35:37;;;;;;;25.33;13.20;;;;;;;0.22;100.00;97751.84;5077810;28;20056;-79
2022/01/23 01:38:05;;;;;;;26.37;14.23;;;;;;;0.25;100.00;97756.06;5058202;28;20078;-80
2022/01/23 01:40:32;;;;;;;27.70;14.10;;;;;;;0.28;100.00;97752.53;5071854;28;20024;-79
2022/01/23 01:42:59;;;;;;;25.17;14.60;;;;;;;0.26;100.00;97746.56;5064817;28;20035;-79
2022/01/23 01:45:27;;;;;;;26.33;13.67;;;;;;;0.28;100.00;97744.78;5065617;28;20032;-79
2022/01/23 01:48:17;;;;;;;27.60;15.03;;;;;;;0.26;100.00;97754.31;5078646;28;20028;-79
2022/01/23 01:50:47;;;;;;;27.17;14.30;;;;;;;0.25;100.00;97745.72;5054215;28;20035;-78
2022/01/23 01:53:15;;;;;;;27.57;14.30;;;;;;;0.28;100.00;97739.59;5052257;28;20440;-79
2022/01/23 01:55:45;;;;;;;30.90;15.57;;;;;;;0.25;100.00;97743.13;5060808;28;20024;-80
2022/01/23 01:58:34;;;;;;;26.23;14.27;;;;;;;0.29;100.00;97746.44;5085704;28;20036;-79
2022/01/23 02:14:56;;;;;;;28.80;15.17;;;;;;;0.25;100.00;97726.78;5076718;28;20062;-79
2022/01/23 02:17:59;;;;;;;31.30;15.73;;;;;;;0.26;100.00;97728.44;5055468;28;20047;-80
2022/01/23 02:50:41;;;;;;;37.30;17.97;;;;;;;0.36;100.00;97714.25;5070490;28;20100;-79
2022/01/23 02:55:54;;;;;;;35.60;18.33;;;;;;;0.32;100.00;97723.88;5069545;28;20024;-79
2022/01/23 02:58:22;;;;;;;37.47;17.53;;;;;;;0.38;100.00;97728.81;5065145;28;20028;-79
2022/01/23 03:01:05;;;;;;;37.47;19.23;;;;;;;0.36;100.00;97722.84;5094041;28;20035;-79
2022/01/23 03:04:02;;;;;;;40.37;19.20;;;;;;;0.38;100.00;97730.56;5049196;28;20085;-79
2022/01/23 03:10:03;;;;;;;38.43;19.00;;;;;;;0.34;100.00;97735.03;5045592;28;20444;-79
2022/01/23 03:15:19;;;;;;;44.70;19.33;;;;;;;0.36;100.00;97735.78;5058843;28;20643;-80
2022/01/23 03:33:29;;;;;;;39.27;19.80;;;;;;;0.35;100.00;97751.41;5086585;28;20166;-79
2022/01/23 03:35:55;;;;;;;38.83;18.23;;;;;;;0.37;100.00;97752.16;5054011;28;20032;-79
2022/01/23 03:38:20;;;;;;;41.87;19.33;;;;;;;0.38;100.00;97752.13;5037444;28;20032;-80
2022/01/23 03:40:46;;;;;;;39.13;19.60;;;;;;;0.36;100.00;97745.31;5076408;28;20402;-80
2022/01/23 03:43:14;;;;;;;37.17;18.83;;;;;;;0.36;100.00;97747.91;5044618;28;20119;-79
2022/01/23 03:50:47;;;;;;;38.57;17.80;;;;;;;0.33;100.00;97746.25;5058364;28;20033;-80
2022/01/23 03:53:20;;;;;;;39.63;18.20;;;;;;;0.29;100.00;97751.63;5066816;28;20070;-78
2022/01/23 03:55:50;;;;;;;37.80;17.93;;;;;;;0.32;100.00;97751.50;5053999;28;20028;-79
2022/01/23 03:58:24;;;;;;;35.73;15.97;;;;;;;0.33;100.00;97743.69;5062120;28;20039;-80
2022/01/23 04:00:50;;;;;;;34.93;16.63;;;;;;;0.30;100.00;97745.53;5079074;28;20024;-78
2022/01/23 04:03:18;;;;;;;35.20;16.60;;;;;;;0.26;100.00;97742.22;5061722;28;20500;-79
2022/01/23 04:05:44;;;;;;;32.67;15.23;;;;;;;0.22;100.00;97746.69;5043696;28;20104;-79
2022/01/23 04:08:16;;;;;;;36.90;16.23;;;;;;;0.25;100.00;97744.88;5056126;28;20036;-79
2022/01/23 04:10:43;;;;;;;36.87;16.53;;;;;;;0.22;100.00;97751.00;5081355;28;20556;-79
2022/01/23 04:13:17;;;;;;;39.43;17.47;;;;;;;0.22;100.00;97736.34;5042851;28;20511;-79
2022/01/23 04:21:16;;;;;;;39.10;16.30;;;;;;;0.23;100.00;97730.28;5062932;28;20392;-80
2022/01/23 04:35:05;;;;;;;36.00;15.17;;;;;;;0.19;100.00;97726.09;5078785;28;20024;-79
2022/01/23 04:45:52;;;;;;;30.20;13.97;;;;;;;0.23;100.00;97743.22;5072792;28;20041;-80
2022/01/23 05:02:23;;;;;;;42.20;17.57;;;;;;;0.27;100.00;97748.25;5060709;28;20459;-78
2022/01/23 05:05:01;;;;;;;38.37;18.53;;;;;;;0.25;100.00;97752.66;5066895;28;20037;-80
2022/01/23 05:07:46;;;;;;;37.97;17.53;;;;;;;0.23;100.00;97757.88;5078006;28;20041;-79
2022/01/23 05:10:33;;;;;;;39.23;17.27;;;;;;;0.24;100.00;97759.56;5033014;28;20040;-80
2022/01/23 05:13:09;;;;;;;40.10;18.97;;;;;;;0.25;100.00;97747.47;5058812;28;20576;-80
2022/01/23 05:15:35;;;;;;;45.37;18.93;;;;;;;0.23;100.00;97750.09;5067540;28;20031;-80
2022/01/23 05:18:01;;;;;;;42.33;18.17;;;;;;;0.27;100.00;97761.19;5056529;28;20036;-79
2022/01/23 05:20:28;;;;;;;43.77;18.33;;;;;;;0.28;100.00;97765.47;5080836;28;20111;-79
2022/01/23 05:23:00;;;;;;;36.50;17.73;;;;;;;0.26;100.00;97762.09;5073960;28;20020;-80
2022/01/23 05:25:27;;;;;;;46.00;19.23;;;;;;;0.29;100.00;97755.06;5054689;28;20035;-79
2022/01/23 05:27:54;;;;;;;49.20;20.97;;;;;;;0.28;100.00;97750.78;5072161;28;20117;-78
2022/01/23 05:30:24;;;;;;;52.63;21.93;;;;;;;0.26;100.00;97751.75;5060861;28;20032;-79
2022/01/23 05:32:50;;;;;;;44.37;19.60;;;;;;;0.29;100.00;97749.88;5071033;28;20051;-80
2022/01/23 05:35:18;;;;;;;42.60;18.53;;;;;;;0.29;100.00;97759.38;5064018;28;20494;-80
2022/01/23 05:37:44;;;;;;;39.97;18.53;;;;;;;0.29;100.00;97759.38;5070003;28;20505;-80
2022/01/23 05:40:16;;;;;;;37.93;18.37;;;;;;;0.28;100.00;97768.91;5073323;28;20031;-78
2022/01/23 05:42:44;;;;;;;40.43;17.40;;;;;;;0.27;100.00;97774.97;5068138;28;20081;-79
2022/01/23 05:45:12;;;;;;;37.93;16.80;;;;;;;0.29;100.00;97767.16;5073723;28;20024;-79
2022/01/23 05:48:09;;;;;;;35.93;17.43;;;;;;;0.27;100.00;97772.41;5023098;28;20033;-80
2022/01/23 05:50:54;;;;;;;33.97;14.87;;;;;;;0.31;100.00;97775.72;5059596;28;20052;-79
2022/01/23 05:53:52;;;;;;;33.80;16.30;;;;;;;0.29;100.00;97785.25;5024313;28;20032;-80
2022/01/23 05:56:32;;;;;;;36.13;16.63;;;;;;;0.29;100.00;97787.84;5064245;28;20047;-80
2022/01/23 05:59:03;;;;;;;32.10;16.17;;;;;;;0.31;100.00;97780.88;5084540;28;20035;-79
2022/01/23 06:01:33;;;;;;;33.17;15.57;;;;;;;0.34;100.00;97780.78;5076421;28;20028;-80
2022/01/23 06:04:09;;;;;;;30.63;15.43;;;;;;;0.37;100.00;97788.38;5049988;28;20020;-79
2022/01/23 06:06:41;;;;;;;36.30;16.47;;;;;;;0.33;100.00;97786.81;5062885;28;20058;-79
2022/01/23 06:09:07;;;;;;;38.47;17.80;;;;;;;0.32;100.00;97777.38;5061785;28;20392;-80
2022/01/23 06:11:33;;;;;;;37.63;18.13;;;;;;;0.31;100.00;97778.28;5058656;28;20044;-79
2022/01/23 06:13:59;;;;;;;38.00;17.90;;;;;;;0.28;100.00;97781.84;5063957;28;20531;-78
2022/01/23 06:16:25;;;;;;;34.03;16.97;;;;;;;0.32;100.00;97788.56;5072109;28;20462;-79
2022/01/23 06:19:20;;;;;;;33.37;15.67;;;;;;;0.31;100.00;97788.66;5007699;28;20034;-79
2022/01/23 06:22:05;;;;;;;36.00;16.77;;;;;;;0.37;100.00;97793.56;5077152;28;20051;-79
2022/01/23 06:24:50;;;;;;;33.53;17.30;;;;;;;0.34;100.00;97796.28;5083562;28;20035;-80
2022/01/23 06:27:28;;;;;;;34.83;16.83;;;;;;;0.32;100.00;97798.09;5075039;28;20040;-79
2022/01/23 06:29:54;;;;;;;42.00;20.37;;;;;;;0.30;100.00;97794.69;5081847;28;20028;-79
2022/01/23 06:32:20;;;;;;;44.87;21.63;;;;;;;0.29;100.00;97795.63;5101256;28;20440;-79
2022/01/23 06:34:46;;;;;;;41.37;19.57;;;;;;;0.27;100.00;97800.84;5082522;28;20036;-80
2022/01/23 06:37:13;;;;;;;36.97;17.53;;;;;;;0.27;100.00;97800.84;5063799;28;20040;-79
2022/01/23 06:39:39;;;;;;;36.03;17.50;;;;;;;0.26;100.00;97803.47;5069105;28;20528;-79
2022/01/23 06:42:08;;;;;;;36.93;18.63;;;;;;;0.30;100.00;97805.06;5074254;28;20024;-79
2022/01/23 06:44:34;;;;;;;37.57;17.83;;;;;;;0.28;100.00;97801.69;5067803;28;20017;-79
2022/01/23 06:47:00;;;;;;;40.43;18.03;;;;;;;0.30;100.00;97805.06;5063948;28;20024;-78
2022/01/23 06:49:26;;;;;;;43.33;18.53;;;;;;;0.34;100.00;97801.47;5062849;28;20063;-80
2022/01/23 06:51:53;;;;;;;42.67;17.60;;;;;;;0.33;100.00;97800.59;5053355;28;20027;-80
2022/01/23 06:54:20;;;;;;;50.27;20.00;;;;;;;0.32;100.00;97811.03;5060424;28;20024;-80
2022/01/23 06:56:46;;;;;;;73.20;22.67;;;;;;;0.34;100.00;97806.66;5058416;28;20036;-80
2022/01/23 06:59:19;;;;;;;74.27;22.77;;;;;;;0.31;100.00;97819.69;5052118;28;20511;-80
2022/01/23 07:01:51;;;;;;;65.30;20.67;;;;;;;0.33;100.00;97825.63;5041165;28;20024;-80
2022/01/23 07:04:29;;;;;;;74.37;21.20;;;;;;;0.32;100.00;97829.13;5064081;28;20108;-79
2022/01/23 07:07:29;;;;;;;104.50;23.33;;;;;;;0.36;100.00;97834.13;5064880;28;20032;-80
2022/01/23 07:10:09;;;;;;;111.83;23.53;;;;;;;0.35;100.00;97834.19;5064581;28;20056;-80
2022/01/23 07:12:52;;;;;;;88.20;22.15;;;;;;;0.32;100.00;97829.13;5051291;28;20070;-80
2022/01/23 07:15:49;;;;;;;109.83;24.03;;;;;;;0.31;100.00;97835.22;5068580;28;20040;-79
2022/01/23 07:18:38;;;;;;;105.43;23.53;;;;;;;0.28;100.00;97851.69;5080389;28;20774;-80
2022/01/23 07:21:15;;;;;;;77.67;23.80;;;;;;;0.31;100.00;97845.56;5053319;28;20035;-80
2022/01/23 07:23:50;;;;;;;109.80;26.27;;;;;;;0.31;100.00;97846.41;5063770;28;20537;-80
2022/01/23 07:26:19;;;;;;;80.53;22.60;;;;;;;0.31;100.00;97848.16;5046184;28;20021;-80
2022/01/23 07:28:47;;;;;;;66.50;23.67;;;;;;;0.35;100.00;97853.16;5067745;28;20060;-80
2022/01/23 07:31:21;;;;;;;58.93;21.77;;;;;;;0.34;100.00;97855.81;5068691;28;20059;-80
2022/01/23 07:33:47;;;;;;;119.57;25.37;;;;;;;0.30;100.00;97862.81;5056035;28;20160;-80
2022/01/23 07:36:19;;;;;;;120.40;27.53;;;;;;;0.35;100.00;97875.59;5062115;28;20032;-79
2022/01/23 07:38:48;;;;;;;93.37;24.73;;;;;;;0.40;100.00;97868.50;5057066;28;20049;-80
2022/01/23 07:41:25;;;;;;;120.40;24.77;;;;;;;0.37;100.00;97866.03;5058041;28;20294;-80
2022/01/23 07:43:57;;;;;;;123.60;24.73;;;;;;;0.41;100.00;97870.22;5061669;28;20477;-80
2022/01/23 07:46:55;;;;;;;174.10;26.37;;;;;;;0.39;100.00;97878.00;5042893;28;20036;-79
2022/01/23 07:49:34;;;;;;;87.50;21.80;;;;;;;0.37;100.00;97876.38;5061574;28;20038;-80
2022/01/23 07:52:23;;;;;;;112.90;24.50;;;;;;;0.42;100.00;97882.25;5073391;28;20070;-80
2022/01/23 07:55:11;;;;;;;76.53;22.43;;;;;;;0.45;100.00;97884.72;5083853;28;20058;-79
2022/01/23 07:58:04;;;;;;;73.20;22.10;;;;;;;0.50;100.00;97881.94;5069868;28;20032;-80
2022/01/23 08:00:37;;;;;;;89.40;23.07;;;;;;;0.51;100.00;97879.31;5064114;28;20025;-79
2022/01/23 08:03:05;;;;;;;143.50;28.77;;;;;;;0.50;100.00;97875.03;5066130;28;20032;-79
2022/01/23 08:06:06;;;;;;;131.60;28.17;;;;;;;0.50;100.00;97879.38;5058548;28;20103;-79
2022/01/23 08:08:40;;;;;;;131.70;27.03;;;;;;;0.54;100.00;97871.44;5066360;28;20132;-80
2022/01/23 08:11:08;;;;;;;79.27;24.77;;;;;;;0.59;100.00;97879.03;5065538;28;20032;-79
2022/01/23 08:13:34;;;;;;;86.57;23.90;;;;;;;0.61;100.00;97880.66;5055153;28;20016;-80
2022/01/23 08:16:04;;;;;;;98.07;25.43;;;;;;;0.60;100.00;97886.72;5058036;28;20189;-79
2022/01/23 08:18:30;;;;;;;139.47;29.27;;;;;;;0.60;100.00;97891.91;5058265;28;20033;-80
2022/01/23 08:20:55;;;;;;;105.43;27.67;;;;;;;0.61;100.00;97878.06;5038376;28;20043;-80
2022/01/23 08:23:21;;;;;;;85.37;25.47;;;;;;;0.64;100.00;97883.16;5065987;28;20035;-80
2022/01/23 08:25:47;;;;;;;91.80;26.20;;;;;;;0.69;100.00;97878.63;5058818;28;20028;-80
2022/01/23 08:28:14;;;;;;;120.53;26.97;;;;;;;0.66;100.00;97891.69;5059320;28;20021;-80
2022/01/23 08:30:40;;;;;;;89.17;26.00;;;;;;;0.69;100.00;97893.31;5059262;28;20580;-79
2022/01/23 08:33:06;;;;;;;100.07;26.17;;;;;;;0.71;100.00;97888.94;5051534;28;20028;-79
2022/01/23 08:35:32;;;;;;;87.93;25.50;;;;;;;0.73;100.00;97887.13;5040421;28;20486;-80
2022/01/23 08:37:59;;;;;;;74.23;26.87;;;;;;;0.77;100.00;97888.72;5080639;28;20381;-79
2022/01/23 08:40:46;;;;;;;88.30;26.80;;;;;;;0.79;100.00;97886.03;5070590;28;20032;-80
2022/01/23 08:43:15;;;;;;;66.20;25.73;;;;;;;0.76;100.00;97899.94;5062549;28;20040;-79
2022/01/23 08:45:42;;;;;;;71.33;25.50;;;;;;;0.83;100.00;97891.03;5053797;28;20028;-79
2022/01/23 08:48:08;;;;;;;64.23;25.37;;;;;;;0.87;100.00;97900.41;5060281;28;20028;-79
2022/01/23 08:50:35;;;;;;;72.30;26.33;;;;;;;0.84;100.00;97892.75;5066112;28;20024;-80
2022/01/23 08:53:00;;;;;;;64.50;22.33;;;;;;;0.90;100.00;97895.06;5073863;28;20032;-79
2022/01/23 08:55:26;;;;;;;67.27;24.47;;;;;;;0.95;100.00;97894.91;5069338;28;20043;-79
2022/01/23 08:57:55;;;;;;;65.23;23.53;;;;;;;0.98;100.00;97894.81;5073682;28;20071;-78
2022/01/23 09:00:23;;;;;;;53.37;22.33;;;;;;;1.10;100.00;97896.06;5084652;28;20021;-79
2022/01/23 09:02:57;;;;;;;59.00;24.50;;;;;;;1.02;100.00;97901.53;5062286;28;20022;-79
2022/01/23 09:05:34;;;;;;;61.30;23.80;;;;;;;1.07;100.00;97891.00;5077507;28;20450;-79
2022/01/23 09:08:00;;;;;;;65.37;23.93;;;;;;;1.07;100.00;97886.66;5055711;28;20032;-79
2022/01/23 09:10:28;;;;;;;61.00;25.27;;;;;;;1.15;100.00;97878.59;5052431;28;20034;-79
2022/01/23 09:15:30;;;;;;;60.70;27.67;;;;;;;1.23;100.00;97881.72;5075779;28;20040;-78
2022/01/23 09:17:56;;;;;;;43.17;20.30;;;;;;;1.23;100.00;97879.13;5036828;28;20040;-82
2022/01/23 09:20:21;;;;;;;40.50;19.07;;;;;;;1.16;100.00;97873.34;5080033;28;20040;-80
2022/01/23 09:22:58;;;;;;;46.07;18.90;;;;;;;1.27;100.00;97874.66;5053441;28;20070;-79
2022/01/23 09:25:24;;;;;;;50.93;23.10;;;;;;;1.36;100.00;97879.47;5070262;28;20031;-80
2022/01/23 09:27:50;;;;;;;51.07;25.97;;;;;;;1.28;100.00;97878.97;5052759;28;20033;-80
2022/01/23 09:30:17;;;;;;;39.70;17.53;;;;;;;1.50;100.00;97868.53;5083080;28;20034;-80
2022/01/23 09:32:44;;;;;;;36.57;17.27;;;;;;;1.52;100.00;97872.78;5082795;28;20055;-79
2022/01/23 09:35:10;;;;;;;35.77;18.17;;;;;;;1.55;100.00;97879.59;5071512;28;20032;-80
2022/01/23 09:37:36;;;;;;;35.33;18.77;;;;;;;1.59;100.00;97873.38;5068336;28;20040;-80
2022/01/23 09:40:05;;;;;;;36.27;19.20;;;;;;;1.69;100.00;97879.00;5076051;28;20035;-80
2022/01/23 09:42:52;;;;;;;38.60;19.77;;;;;;;1.70;100.00;97880.69;5076800;28;20035;-80
2022/01/23 09:45:18;;;;;;;33.67;17.10;;;;;;;1.83;100.00;97882.69;5058925;28;20024;-80
2022/01/23 09:47:45;;;;;;;31.67;15.60;;;;;;;1.88;100.00;97898.09;5056606;28;20163;-80
2022/01/23 09:50:13;;;;;;;34.33;16.87;;;;;;;1.89;100.00;97894.56;5046539;28;20020;-79
2022/01/23 09:52:43;;;;;;;24.87;13.10;;;;;;;1.74;100.00;97892.63;5064899;28;20051;-80
2022/01/23 09:55:12;;;;;;;32.13;17.03;;;;;;;1.86;100.00;97889.50;5048798;28;20028;-80
2022/01/23 09:57:41;;;;;;;30.87;15.80;;;;;;;1.84;100.00;97905.13;5070872;28;20036;-80
2022/01/23 10:00:21;;;;;;;33.70;17.57;;;;;;;1.75;100.00;97904.69;5052720;28;20781;-79
2022/01/23 10:02:51;;;;;;;31.10;15.63;;;;;;;1.65;100.00;97901.63;5066885;28;20028;-80
2022/01/23 10:05:17;;;;;;;26.47;13.50;;;;;;;1.75;100.00;97909.88;5048826;28;20028;-80
2022/01/23 10:07:45;;;;;;;30.00;15.20;;;;;;;1.74;100.00;97909.00;5063131;28;20020;-79
2022/01/23 10:10:23;;;;;;;26.33;15.10;;;;;;;1.86;100.00;97905.06;5047131;28;20036;-80
2022/01/23 10:12:55;;;;;;;26.67;14.70;;;;;;;1.80;100.00;97906.16;5068184;28;20051;-81
2022/01/23 10:15:25;;;;;;;28.23;14.67;;;;;;;1.93;100.00;97900.47;5051944;28;20032;-79
2022/01/23 10:17:51;;;;;;;32.03;17.03;;;;;;;1.96;100.00;97901.19;5052737;28;20423;-79
2022/01/23 10:20:18;;;;;;;30.27;16.03;;;;;;;2.00;100.00;97904.50;5043789;28;20126;-80
2022/01/23 10:22:46;;;;;;;25.20;14.40;;;;;;;1.98;100.00;97899.38;5067169;28;20068;-82
2022/01/23 10:25:22;;;;;;;25.03;12.97;;;;;;;2.15;100.00;97900.38;5064508;28;20029;-80
2022/01/23 10:28:05;;;;;;;27.17;13.47;;;;;;;2.07;100.00;97904.16;5083790;28;20070;-80
2022/01/23 10:30:51;;;;;;;20.90;11.27;;;;;;;2.23;100.00;97896.56;5046568;28;20036;-80
2022/01/23 10:33:23;;;;;;;22.53;12.90;;;;;;;2.25;100.00;97893.91;5055014;28;20037;-79
2022/01/23 10:36:07;;;;;;;26.20;14.43;;;;;;;2.31;100.00;97891.03;5050089;28;20400;-80
2022/01/23 10:38:51;;;;;;;24.30;13.00;;;;;;;2.38;100.00;97882.06;5061575;28;20025;-77
2022/01/23 10:49:47;;;;;;;25.40;15.23;;;;;;;2.85;100.00;97873.88;5067793;28;20032;-81
2022/01/23 10:52:36;;;;;;;24.98;13.48;;;;;;;2.84;100.00;97865.22;5048801;28;20039;-81
2022/01/23 10:55:11;;;;;;;24.47;12.97;;;;;;;2.96;100.00;97858.63;5036579;28;20048;-81
2022/01/23 10:57:48;;;;;;;20.57;11.17;;;;;;;2.76;100.00;97869.09;5054497;28;20725;-80
2022/01/23 11:00:32;;;;;;;19.93;11.70;;;;;;;2.95;100.00;97864.75;5063802;28;20549;-81
2022/01/23 11:03:02;;;;;;;25.07;13.77;;;;;;;3.13;100.00;97867.38;5056751;28;20081;-81
2022/01/23 11:05:39;;;;;;;23.23;13.20;;;;;;;3.04;100.00;97868.66;5065482;28;20025;-81
2022/01/23 11:08:26;;;;;;;24.23;12.57;;;;;;;2.90;100.00;97871.91;5044654;28;20493;-80
2022/01/23 11:10:56;;;;;;;18.93;10.43;;;;;;;2.80;100.00;97868.88;5072494;28;20026;-79
2022/01/23 11:19:28;;;;;;;21.63;10.77;;;;;;;3.31;100.00;97856.09;5053401;28;20040;-81
2022/01/23 11:21:54;;;;;;;19.37;10.77;;;;;;;3.26;100.00;97858.91;5056386;28;20028;-80
2022/01/23 11:24:34;;;;;;;19.00;10.30;;;;;;;3.46;100.00;97852.75;5068141;28;20500;-81
2022/01/23 11:27:01;;;;;;;19.80;10.87;;;;;;;3.38;100.00;97851.44;5045924;28;20028;-81
2022/01/23 11:29:28;;;;;;;20.37;10.90;;;;;;;3.30;100.00;97850.03;5044520;28;20028;-80
2022/01/23 11:31:54;;;;;;;18.27;10.87;;;;;;;3.19;100.00;97848.91;5062328;28;20032;-82
2022/01/23 11:34:22;;;;;;;17.20;10.33;;;;;;;3.30;100.00;97844.84;5079701;28;20039;-81
2022/01/23 11:36:47;;;;;;;18.70;10.53;;;;;;;3.48;100.00;97848.28;5073775;28;20086;-81
2022/01/23 11:39:22;;;;;;;17.93;9.97;;;;;;;3.50;100.00;97849.06;5054918;28;20033;-80
2022/01/23 11:53:50;;;;;;;;;;;;;;;3.56;100.00;97839.28;5049458;28;20028;-80
2022/01/23 11:56:27;;;;;;;19.97;11.33;;;;;;;3.77;100.00;97844.25;5063088;28;20408;-80
2022/01/23 11:59:23;;;;;;;22.67;10.83;;;;;;;3.68;100.00;97839.50;5072469;28;20107;-78
2022/01/23 12:02:11;;;;;;;16.87;9.60;;;;;;;3.66;100.00;97836.16;5058762;28;20127;-79
2022/01/23 12:04:39;;;;;;;18.77;11.10;;;;;;;3.76;100.00;97824.34;5061692;28;20135;-78
2022/01/23 12:07:11;;;;;;;17.40;9.27;;;;;;;3.89;100.00;97832.38;5064024;28;20737;-78
2022/01/23 12:09:44;;;;;;;17.50;10.07;;;;;;;4.06;100.00;97836.72;5060997;28;20036;-78
2022/01/23 12:12:36;;;;;;;15.07;8.68;;;;;;;3.99;100.00;97828.38;5071180;28;20091;-77
2022/01/23 12:18:15;;;;;;;17.97;9.73;;;;;;;4.10;100.00;97824.38;5078263;28;20114;-77
2022/01/23 12:20:42;;;;;;;16.43;10.17;;;;;;;3.78;100.00;97827.69;5082300;28;20050;-78
2022/01/23 12:23:09;;;;;;;15.53;9.63;;;;;;;4.08;100.00;97821.00;5042993;28;20087;-79
2022/01/23 12:25:52;;;;;;;17.27;9.03;;;;;;;4.06;100.00;97823.69;5088495;28;20028;-78
2022/01/23 12:28:28;;;;;;;15.60;9.03;;;;;;;3.95;100.00;97824.22;5046418;28;20123;-78
2022/01/23 12:30:56;;;;;;;15.47;8.83;;;;;;;3.92;100.00;97829.63;5095365;28;20028;-82
2022/01/23 12:33:45;;;;;;;13.00;7.00;;;;;;;3.97;100.00;97830.22;5100981;28;20028;-80
2022/01/23 12:36:13;;;;;;;12.07;6.30;;;;;;;4.25;100.00;97818.34;5058477;28;20028;-80
2022/01/23 12:38:42;;;;;;;11.47;6.10;;;;;;;3.85;100.00;97816.97;5062748;28;20067;-80
2022/01/23 12:41:30;;;;;;;9.30;5.47;;;;;;;3.94;100.00;97819.97;5053734;28;20028;-79
2022/01/23 12:44:06;;;;;;;12.73;7.10;;;;;;;4.10;100.00;97819.19;5055969;28;20051;-80
2022/01/23 12:46:48;;;;;;;11.07;5.90;;;;;;;4.24;100.00;97819.28;5073146;28;20028;-80
2022/01/23 12:49:20;;;;;;;9.20;4.93;;;;;;;4.17;100.00;97816.16;5078658;28;20032;-78
2022/01/23 12:51:49;;;;;;;10.63;5.47;;;;;;;4.17;100.00;97810.94;5069626;28;20774;-79
2022/01/23 12:54:29;;;;;;;8.03;4.23;;;;;;;4.02;100.00;97819.56;5062722;28;20037;-79
2022/01/23 12:57:38;;;;;;;12.00;4.77;;;;;;;4.08;100.00;97813.19;5074935;28;20039;-78
2022/01/23 13:00:15;;;;;;;6.97;3.40;;;;;;;3.87;100.00;97810.78;5061427;28;20497;-80
2022/01/23 13:02:48;;;;;;;7.97;3.93;;;;;;;3.85;100.00;97809.19;5079347;28;20029;-80
2022/01/23 13:05:17;;;;;;;6.20;3.00;;;;;;;3.80;100.00;97814.63;5061084;28;20052;-80
2022/01/23 13:13:26;;;;;;;17.73;6.53;;;;;;;3.99;93.40;97809.28;5078685;28;20675;-79
2022/01/23 13:30:13;;;;;;;4.00;1.53;;;;;;;4.07;85.53;97799.34;5081107;28;20024;-79
2022/01/23 13:32:47;;;;;;;6.33;2.30;;;;;;;4.02;85.20;97796.13;5050835;28;20465;-79
2022/01/23 13:35:26;;;;;;;1.80;0.90;;;;;;;3.91;81.35;97791.47;5056901;28;20056;-80
2022/01/23 13:37:56;;;;;;;1.93;0.73;;;;;;;3.83;78.94;97785.84;5054654;28;20036;-79
2022/01/23 13:40:28;;;;;;;7.27;1.67;;;;;;;3.78;79.41;97793.03;5083755;28;20028;-81
2022/01/23 14:04:29;;;;;;;5.13;1.93;;;;;;;3.61;81.94;97780.88;5081435;28;20025;-80
2022/01/23 14:06:55;;;;;;;4.03;1.80;;;;;;;3.63;82.04;97775.63;5075038;28;20028;-79
2022/01/23 14:09:24;;;;;;;4.07;1.30;;;;;;;3.64;83.15;97787.72;5066045;28;20107;-79
2022/01/23 14:11:51;;;;;;;4.50;1.90;;;;;;;3.39;85.17;97782.91;5072990;28;20104;-79
2022/01/23 14:14:24;;;;;;;6.20;2.03;;;;;;;3.44;83.09;97783.50;5054880;28;20024;-78
2022/01/23 14:16:52;;;;;;;4.15;1.73;;;;;;;3.57;84.24;97778.53;5050705;28;20092;-80
2022/01/23 14:19:23;;;;;;;5.53;2.37;;;;;;;3.66;86.55;97783.28;5043612;28;20116;-78
2022/01/23 14:22:00;;;;;;;3.97;1.70;;;;;;;3.69;95.28;97783.09;5054602;28;20028;-79
2022/01/23 14:24:32;;;;;;;4.80;2.10;;;;;;;3.62;90.96;97787.81;5060795;28;20092;-80
2022/01/23 14:27:10;;;;;;;3.97;1.58;;;;;;;3.38;92.78;97789.84;5050178;28;20131;-80
2022/01/23 14:29:51;;;;;;;14.20;7.83;;;;;;;3.41;95.02;97787.09;5068649;28;20038;-81
2022/01/23 14:32:35;;;;;;;25.13;14.07;;;;;;;3.51;99.07;97783.13;5052828;28;20039;-79
2022/01/23 14:35:30;;;;;;;12.23;5.33;;;;;;;3.52;96.51;97778.75;5065310;28;20025;-80
2022/01/23 14:38:15;;;;;;;8.00;5.00;;;;;;;3.34;99.61;97784.88;5075090;28;20405;-80
2022/01/23 14:40:51;;;;;;;6.37;2.13;;;;;;;3.31;100.00;97793.69;5046889;28;20024;-80
2022/01/23 14:43:17;;;;;;;5.53;2.40;;;;;;;3.25;100.00;97786.19;5067586;28;20036;-80
2022/01/23 14:45:45;;;;;;;4.20;2.23;;;;;;;3.15;100.00;97792.75;5066018;28;20033;-81
2022/01/23 14:48:13;;;;;;;5.60;2.70;;;;;;;3.06;100.00;97787.09;5047371;28;20043;-79
2022/01/23 14:50:42;;;;;;;6.20;2.60;;;;;;;3.02;100.00;97782.13;5048410;28;20024;-80
2022/01/23 14:53:15;;;;;;;5.50;3.03;;;;;;;3.02;100.00;97784.72;5069047;28;20085;-80
2022/01/23 14:55:50;;;;;;;4.93;2.40;;;;;;;2.94;100.00;97782.47;5084673;28;20019;-80
2022/01/23 14:58:21;;;;;;;5.80;2.67;;;;;;;2.89;100.00;97781.88;5083258;28;20082;-80
2022/01/23 15:00:53;;;;;;;5.67;2.80;;;;;;;2.98;100.00;97781.41;5060557;28;20067;-79
2022/01/23 15:03:20;;;;;;;6.03;2.70;;;;;;;2.93;100.00;97780.81;5060861;28;20393;-80
2022/01/23 15:05:46;;;;;;;5.43;2.40;;;;;;;2.95;100.00;97789.38;5047645;28;20076;-80
2022/01/23 15:08:15;;;;;;;7.27;3.00;;;;;;;3.03;100.00;97789.00;5039907;28;20545;-80
2022/01/23 15:10:44;;;;;;;6.83;3.07;;;;;;;2.99;100.00;97785.72;5060899;28;20052;-80
2022/01/23 15:13:12;;;;;;;5.60;2.73;;;;;;;2.99;100.00;97790.91;5039444;28;20028;-79
2022/01/23 15:15:38;;;;;;;6.63;3.37;;;;;;;2.95;100.00;97791.97;5082091;28;20543;-80
2022/01/23 15:18:05;;;;;;;6.37;2.37;;;;;;;2.90;100.00;97793.94;5062479;28;20020;-80
2022/01/23 15:20:33;;;;;;;7.97;3.57;;;;;;;2.76;100.00;97799.81;5064110;28;20078;-79